sensor_id;sensor_type;location;lat;lon;timestamp;P1;durP1;ratioP1;P2;durP2;ratioP2
10705;SDS011;5404;42.656;23.336;2024-03-23T00:54:33;37.92;;;15.25;;
10705;SDS011;5404;42.656;23.336;2024-03-23T00:56:58;39.80;;;16.42;;
10705;SDS011;5404;42.656;23.336;2024-03-23T00:59:24;33.00;;;15.07;;
10705;SDS011;5404;42.656;23.336;2024-03-23T01:01:53;40.58;;;14.50;;
10705;SDS011;5404;42.656;23.336;2024-03-23T01:04:19;35.55;;;14.77;;
10705;SDS011;5404;42.656;23.336;2024-03-23T01:06:44;36.25;;;14.65;;
10705;SDS011;5404;42.656;23.336;2024-03-23T01:09:09;40.33;;;15.38;;
10705;SDS011;5404;42.656;23.336;2024-03-23T01:11:36;34.72;;;15.18;;
10705;SDS011;5404;42.656;23.336;2024-03-23T01:14:02;39.75;;;15.05;;
10705;SDS011;5404;42.656;23.336;2024-03-23T01:16:27;38.15;;;15.50;;
10705;SDS011;5404;42.656;23.336;2024-03-23T01:18:53;45.50;;;16.35;;
10705;SDS011;5404;42.656;23.336;2024-03-23T01:21:18;53.30;;;16.48;;
10705;SDS011;5404;42.656;23.336;2024-03-23T01:23:44;45.00;;;16.17;;
10705;SDS011;5404;42.656;23.336;2024-03-23T01:26:09;35.70;;;15.18;;
10705;SDS011;5404;42.656;23.336;2024-03-23T01:28:35;37.85;;;15.77;;
10705;SDS011;5404;42.656;23.336;2024-03-23T01:31:00;51.20;;;15.30;;
10705;SDS011;5404;42.656;23.336;2024-03-23T01:33:26;34.17;;;13.77;;
10705;SDS011;5404;42.656;23.336;2024-03-23T01:35:51;43.15;;;15.60;;
10705;SDS011;5404;42.656;23.336;2024-03-23T01:38:16;37.70;;;15.70;;
10705;SDS011;5404;42.656;23.336;2024-03-23T01:40:42;32.92;;;14.45;;
10705;SDS011;5404;42.656;23.336;2024-03-23T01:43:08;42.13;;;15.27;;
10705;SDS011;5404;42.656;23.336;2024-03-23T01:45:34;34.60;;;14.10;;
10705;SDS011;5404;42.656;23.336;2024-03-23T01:48:00;42.80;;;14.60;;
10705;SDS011;5404;42.656;23.336;2024-03-23T01:50:26;40.90;;;14.93;;
10705;SDS011;5404;42.656;23.336;2024-03-23T01:52:52;35.33;;;14.02;;
10705;SDS011;5404;42.656;23.336;2024-03-23T01:55:18;39.35;;;14.88;;
10705;SDS011;5404;42.656;23.336;2024-03-23T01:57:44;31.50;;;13.93;;
10705;SDS011;5404;42.656;23.336;2024-03-23T02:00:10;41.80;;;14.88;;
10705;SDS011;5404;42.656;23.336;2024-03-23T02:02:46;41.28;;;15.02;;
10705;SDS011;5404;42.656;23.336;2024-03-23T02:05:12;41.70;;;14.48;;
10705;SDS011;5404;42.656;23.336;2024-03-23T02:07:38;40.72;;;16.13;;
10705;SDS011;5404;42.656;23.336;2024-03-23T02:10:05;41.90;;;16.63;;
10705;SDS011;5404;42.656;23.336;2024-03-23T02:12:35;50.35;;;16.90;;
10705;SDS011;5404;42.656;23.336;2024-03-23T02:15:01;43.80;;;17.23;;
10705;SDS011;5404;42.656;23.336;2024-03-23T02:17:26;40.15;;;14.30;;
10705;SDS011;5404;42.656;23.336;2024-03-23T02:19:53;40.13;;;15.40;;
10705;SDS011;5404;42.656;23.336;2024-03-23T02:22:18;36.40;;;15.93;;
10705;SDS011;5404;42.656;23.336;2024-03-23T02:24:44;36.83;;;15.25;;
10705;SDS011;5404;42.656;23.336;2024-03-23T02:27:09;34.95;;;14.82;;
10705;SDS011;5404;42.656;23.336;2024-03-23T02:29:36;35.65;;;15.57;;
10705;SDS011;5404;42.656;23.336;2024-03-23T02:32:02;39.17;;;15.50;;
10705;SDS011;5404;42.656;23.336;2024-03-23T02:34:28;34.95;;;15.90;;
10705;SDS011;5404;42.656;23.336;2024-03-23T02:36:53;37.17;;;16.10;;
10705;SDS011;5404;42.656;23.336;2024-03-23T02:39:18;34.38;;;15.93;;
10705;SDS011;5404;42.656;23.336;2024-03-23T02:41:44;40.13;;;16.35;;
10705;SDS011;5404;42.656;23.336;2024-03-23T02:44:10;44.50;;;17.60;;
10705;SDS011;5404;42.656;23.336;2024-03-23T02:46:37;36.67;;;15.40;;
10705;SDS011;5404;42.656;23.336;2024-03-23T02:49:03;38.83;;;16.05;;
10705;SDS011;5404;42.656;23.336;2024-03-23T02:51:29;46.13;;;14.98;;
10705;SDS011;5404;42.656;23.336;2024-03-23T02:53:55;31.63;;;14.80;;
10705;SDS011;5404;42.656;23.336;2024-03-23T02:56:21;35.47;;;15.10;;
10705;SDS011;5404;42.656;23.336;2024-03-23T02:58:46;40.63;;;16.13;;
10705;SDS011;5404;42.656;23.336;2024-03-23T03:01:12;37.80;;;15.95;;
10705;SDS011;5404;42.656;23.336;2024-03-23T03:03:37;46.75;;;15.38;;
10705;SDS011;5404;42.656;23.336;2024-03-23T03:06:03;43.38;;;16.42;;
10705;SDS011;5404;42.656;23.336;2024-03-23T03:08:28;38.72;;;16.77;;
10705;SDS011;5404;42.656;23.336;2024-03-23T03:10:54;31.38;;;15.77;;
10705;SDS011;5404;42.656;23.336;2024-03-23T03:13:19;38.25;;;15.40;;
10705;SDS011;5404;42.656;23.336;2024-03-23T03:15:45;35.85;;;15.75;;
10705;SDS011;5404;42.656;23.336;2024-03-23T03:18:10;40.65;;;14.60;;
10705;SDS011;5404;42.656;23.336;2024-03-23T03:20:39;41.60;;;17.65;;
10705;SDS011;5404;42.656;23.336;2024-03-23T03:25:30;38.67;;;16.25;;
10705;SDS011;5404;42.656;23.336;2024-03-23T03:27:55;38.00;;;16.17;;
10705;SDS011;5404;42.656;23.336;2024-03-23T03:30:21;44.17;;;16.58;;
10705;SDS011;5404;42.656;23.336;2024-03-23T03:32:46;48.08;;;16.65;;
10705;SDS011;5404;42.656;23.336;2024-03-23T03:35:11;36.45;;;15.27;;
10705;SDS011;5404;42.656;23.336;2024-03-23T03:37:37;37.13;;;15.85;;
10705;SDS011;5404;42.656;23.336;2024-03-23T03:40:02;39.20;;;15.25;;
10705;SDS011;5404;42.656;23.336;2024-03-23T03:42:28;40.38;;;16.02;;
10705;SDS011;5404;42.656;23.336;2024-03-23T03:44:54;45.60;;;15.90;;
10705;SDS011;5404;42.656;23.336;2024-03-23T03:47:19;40.50;;;15.77;;
10705;SDS011;5404;42.656;23.336;2024-03-23T03:49:44;46.47;;;15.88;;
10705;SDS011;5404;42.656;23.336;2024-03-23T03:52:10;53.10;;;16.58;;
10705;SDS011;5404;42.656;23.336;2024-03-23T03:54:36;39.08;;;16.35;;
10705;SDS011;5404;42.656;23.336;2024-03-23T03:57:01;38.08;;;14.80;;
10705;SDS011;5404;42.656;23.336;2024-03-23T03:59:27;41.25;;;15.82;;
10705;SDS011;5404;42.656;23.336;2024-03-23T04:01:52;39.95;;;15.93;;
10705;SDS011;5404;42.656;23.336;2024-03-23T04:04:17;41.08;;;16.63;;
10705;SDS011;5404;42.656;23.336;2024-03-23T04:06:43;36.17;;;14.80;;
10705;SDS011;5404;42.656;23.336;2024-03-23T04:09:09;34.30;;;15.73;;
10705;SDS011;5404;42.656;23.336;2024-03-23T04:11:35;38.00;;;15.68;;
10705;SDS011;5404;42.656;23.336;2024-03-23T04:14:00;35.08;;;14.63;;
10705;SDS011;5404;42.656;23.336;2024-03-23T04:16:29;38.22;;;15.73;;
10705;SDS011;5404;42.656;23.336;2024-03-23T04:18:58;32.38;;;16.05;;
10705;SDS011;5404;42.656;23.336;2024-03-23T04:21:24;43.70;;;17.45;;
10705;SDS011;5404;42.656;23.336;2024-03-23T04:23:49;39.75;;;16.30;;
10705;SDS011;5404;42.656;23.336;2024-03-23T04:26:15;38.28;;;15.63;;
10705;SDS011;5404;42.656;23.336;2024-03-23T04:28:41;33.92;;;15.70;;
10705;SDS011;5404;42.656;23.336;2024-03-23T04:31:06;34.65;;;16.70;;
10705;SDS011;5404;42.656;23.336;2024-03-23T04:33:31;34.45;;;17.13;;
10705;SDS011;5404;42.656;23.336;2024-03-23T04:35:57;39.92;;;17.42;;
10705;SDS011;5404;42.656;23.336;2024-03-23T04:38:22;37.92;;;17.90;;
10705;SDS011;5404;42.656;23.336;2024-03-23T04:40:57;39.45;;;17.15;;
10705;SDS011;5404;42.656;23.336;2024-03-23T04:43:24;32.08;;;16.88;;
10705;SDS011;5404;42.656;23.336;2024-03-23T04:45:50;38.08;;;16.77;;
10705;SDS011;5404;42.656;23.336;2024-03-23T04:48:15;41.78;;;16.88;;
10705;SDS011;5404;42.656;23.336;2024-03-23T04:50:41;47.72;;;18.05;;
10705;SDS011;5404;42.656;23.336;2024-03-23T04:53:07;37.05;;;17.55;;
10705;SDS011;5404;42.656;23.336;2024-03-23T04:55:32;41.83;;;18.15;;
10705;SDS011;5404;42.656;23.336;2024-03-23T04:57:58;40.72;;;17.23;;
10705;SDS011;5404;42.656;23.336;2024-03-23T05:00:23;41.10;;;17.90;;
10705;SDS011;5404;42.656;23.336;2024-03-23T05:02:50;43.50;;;17.83;;
10705;SDS011;5404;42.656;23.336;2024-03-23T05:05:15;38.10;;;17.40;;
10705;SDS011;5404;42.656;23.336;2024-03-23T05:07:41;37.83;;;17.00;;
10705;SDS011;5404;42.656;23.336;2024-03-23T05:10:07;47.90;;;18.23;;
10705;SDS011;5404;42.656;23.336;2024-03-23T05:12:39;43.28;;;18.30;;
10705;SDS011;5404;42.656;23.336;2024-03-23T05:15:05;40.95;;;17.08;;
10705;SDS011;5404;42.656;23.336;2024-03-23T05:17:31;38.00;;;17.75;;
10705;SDS011;5404;42.656;23.336;2024-03-23T05:19:57;41.03;;;16.85;;
10705;SDS011;5404;42.656;23.336;2024-03-23T05:22:23;38.17;;;16.88;;
10705;SDS011;5404;42.656;23.336;2024-03-23T05:24:48;36.38;;;16.05;;
10705;SDS011;5404;42.656;23.336;2024-03-23T05:27:13;57.00;;;18.85;;
10705;SDS011;5404;42.656;23.336;2024-03-23T05:29:40;48.60;;;17.73;;
10705;SDS011;5404;42.656;23.336;2024-03-23T05:32:05;49.63;;;18.33;;
10705;SDS011;5404;42.656;23.336;2024-03-23T05:34:31;36.03;;;17.23;;
10705;SDS011;5404;42.656;23.336;2024-03-23T05:36:56;44.53;;;18.48;;
10705;SDS011;5404;42.656;23.336;2024-03-23T05:39:22;42.83;;;17.23;;
10705;SDS011;5404;42.656;23.336;2024-03-23T05:41:48;42.30;;;18.00;;
10705;SDS011;5404;42.656;23.336;2024-03-23T05:44:13;57.08;;;18.85;;
10705;SDS011;5404;42.656;23.336;2024-03-23T05:46:40;36.78;;;17.33;;
10705;SDS011;5404;42.656;23.336;2024-03-23T05:49:06;37.67;;;16.92;;
10705;SDS011;5404;42.656;23.336;2024-03-23T05:51:31;39.80;;;17.77;;
10705;SDS011;5404;42.656;23.336;2024-03-23T05:53:57;48.10;;;17.38;;
10705;SDS011;5404;42.656;23.336;2024-03-23T05:56:22;40.45;;;17.23;;
10705;SDS011;5404;42.656;23.336;2024-03-23T05:58:48;40.35;;;16.73;;
10705;SDS011;5404;42.656;23.336;2024-03-23T06:01:13;41.60;;;18.23;;
10705;SDS011;5404;42.656;23.336;2024-03-23T06:03:39;43.25;;;17.27;;
10705;SDS011;5404;42.656;23.336;2024-03-23T06:06:04;37.17;;;16.75;;
10705;SDS011;5404;42.656;23.336;2024-03-23T06:08:35;35.10;;;16.55;;
10705;SDS011;5404;42.656;23.336;2024-03-23T06:11:00;34.67;;;16.08;;
10705;SDS011;5404;42.656;23.336;2024-03-23T06:13:26;36.92;;;16.83;;
10705;SDS011;5404;42.656;23.336;2024-03-23T06:15:54;48.42;;;18.85;;
10705;SDS011;5404;42.656;23.336;2024-03-23T06:18:20;43.95;;;18.33;;
10705;SDS011;5404;42.656;23.336;2024-03-23T06:20:45;45.00;;;17.90;;
10705;SDS011;5404;42.656;23.336;2024-03-23T06:23:11;41.60;;;17.52;;
10705;SDS011;5404;42.656;23.336;2024-03-23T06:25:37;42.60;;;17.25;;
10705;SDS011;5404;42.656;23.336;2024-03-23T06:28:03;38.47;;;16.77;;
10705;SDS011;5404;42.656;23.336;2024-03-23T06:30:29;38.03;;;18.77;;
10705;SDS011;5404;42.656;23.336;2024-03-23T06:32:55;53.28;;;19.35;;
10705;SDS011;5404;42.656;23.336;2024-03-23T06:35:20;39.10;;;17.85;;
10705;SDS011;5404;42.656;23.336;2024-03-23T06:37:46;47.90;;;18.42;;
10705;SDS011;5404;42.656;23.336;2024-03-23T06:40:11;48.10;;;17.85;;
10705;SDS011;5404;42.656;23.336;2024-03-23T06:42:37;46.33;;;17.88;;
10705;SDS011;5404;42.656;23.336;2024-03-23T06:45:02;31.77;;;16.42;;
10705;SDS011;5404;42.656;23.336;2024-03-23T06:47:30;34.55;;;15.88;;
10705;SDS011;5404;42.656;23.336;2024-03-23T06:49:55;38.58;;;17.92;;
10705;SDS011;5404;42.656;23.336;2024-03-23T06:52:21;32.85;;;15.63;;
10705;SDS011;5404;42.656;23.336;2024-03-23T06:54:46;29.75;;;14.20;;
10705;SDS011;5404;42.656;23.336;2024-03-23T06:57:11;31.83;;;15.50;;
10705;SDS011;5404;42.656;23.336;2024-03-23T06:59:37;31.77;;;15.23;;
10705;SDS011;5404;42.656;23.336;2024-03-23T07:02:04;45.78;;;14.48;;
10705;SDS011;5404;42.656;23.336;2024-03-23T07:04:30;33.45;;;14.52;;
10705;SDS011;5404;42.656;23.336;2024-03-23T07:06:55;27.85;;;13.68;;
10705;SDS011;5404;42.656;23.336;2024-03-23T07:09:21;38.85;;;14.77;;
10705;SDS011;5404;42.656;23.336;2024-03-23T07:11:50;29.75;;;13.73;;
10705;SDS011;5404;42.656;23.336;2024-03-23T07:14:15;35.42;;;13.98;;
10705;SDS011;5404;42.656;23.336;2024-03-23T07:16:41;31.70;;;13.07;;
10705;SDS011;5404;42.656;23.336;2024-03-23T07:19:06;39.25;;;13.85;;
10705;SDS011;5404;42.656;23.336;2024-03-23T07:21:31;22.95;;;12.93;;
10705;SDS011;5404;42.656;23.336;2024-03-23T07:23:57;32.72;;;13.90;;
10705;SDS011;5404;42.656;23.336;2024-03-23T07:26:22;31.60;;;13.02;;
10705;SDS011;5404;42.656;23.336;2024-03-23T07:28:48;27.48;;;12.50;;
10705;SDS011;5404;42.656;23.336;2024-03-23T07:31:14;28.35;;;13.05;;
10705;SDS011;5404;42.656;23.336;2024-03-23T07:33:43;29.30;;;12.27;;
10705;SDS011;5404;42.656;23.336;2024-03-23T07:36:11;25.75;;;12.30;;
10705;SDS011;5404;42.656;23.336;2024-03-23T07:38:36;22.88;;;12.35;;
10705;SDS011;5404;42.656;23.336;2024-03-23T07:41:12;25.65;;;11.88;;
10705;SDS011;5404;42.656;23.336;2024-03-23T07:43:42;25.88;;;11.65;;
10705;SDS011;5404;42.656;23.336;2024-03-23T07:46:08;27.40;;;11.73;;
10705;SDS011;5404;42.656;23.336;2024-03-23T07:48:33;30.77;;;11.52;;
10705;SDS011;5404;42.656;23.336;2024-03-23T07:53:26;35.28;;;12.13;;
10705;SDS011;5404;42.656;23.336;2024-03-23T07:55:55;27.45;;;11.88;;
10705;SDS011;5404;42.656;23.336;2024-03-23T07:58:21;30.90;;;11.85;;
10705;SDS011;5404;42.656;23.336;2024-03-23T08:00:47;23.73;;;11.07;;
10705;SDS011;5404;42.656;23.336;2024-03-23T08:03:13;25.75;;;12.30;;
10705;SDS011;5404;42.656;23.336;2024-03-23T08:05:38;24.85;;;11.35;;
10705;SDS011;5404;42.656;23.336;2024-03-23T08:08:04;29.73;;;11.98;;
10705;SDS011;5404;42.656;23.336;2024-03-23T08:10:29;26.50;;;11.85;;
10705;SDS011;5404;42.656;23.336;2024-03-23T08:12:54;24.15;;;12.43;;
10705;SDS011;5404;42.656;23.336;2024-03-23T08:15:22;30.33;;;12.70;;
10705;SDS011;5404;42.656;23.336;2024-03-23T08:17:47;27.05;;;12.57;;
10705;SDS011;5404;42.656;23.336;2024-03-23T08:20:14;30.30;;;12.13;;
10705;SDS011;5404;42.656;23.336;2024-03-23T08:22:39;27.65;;;12.68;;
10705;SDS011;5404;42.656;23.336;2024-03-23T08:25:05;29.70;;;13.68;;
10705;SDS011;5404;42.656;23.336;2024-03-23T08:27:31;32.35;;;13.60;;
10705;SDS011;5404;42.656;23.336;2024-03-23T08:29:56;46.58;;;14.07;;
10705;SDS011;5404;42.656;23.336;2024-03-23T08:32:21;29.25;;;13.85;;
10705;SDS011;5404;42.656;23.336;2024-03-23T08:34:47;33.90;;;14.23;;
10705;SDS011;5404;42.656;23.336;2024-03-23T08:37:12;28.40;;;13.77;;
10705;SDS011;5404;42.656;23.336;2024-03-23T08:39:38;32.05;;;14.07;;
10705;SDS011;5404;42.656;23.336;2024-03-23T08:42:03;25.13;;;12.15;;
10705;SDS011;5404;42.656;23.336;2024-03-23T08:44:29;28.88;;;12.55;;
10705;SDS011;5404;42.656;23.336;2024-03-23T08:46:57;26.50;;;13.52;;
10705;SDS011;5404;42.656;23.336;2024-03-23T08:49:24;30.65;;;13.88;;
10705;SDS011;5404;42.656;23.336;2024-03-23T08:51:49;25.05;;;12.10;;
10705;SDS011;5404;42.656;23.336;2024-03-23T08:54:14;29.23;;;12.50;;
10705;SDS011;5404;42.656;23.336;2024-03-23T08:56:40;31.42;;;13.68;;
10705;SDS011;5404;42.656;23.336;2024-03-23T08:59:05;24.40;;;12.32;;
10705;SDS011;5404;42.656;23.336;2024-03-23T09:01:31;29.52;;;13.02;;
10705;SDS011;5404;42.656;23.336;2024-03-23T09:03:56;35.38;;;13.27;;
10705;SDS011;5404;42.656;23.336;2024-03-23T09:06:21;32.85;;;12.88;;
10705;SDS011;5404;42.656;23.336;2024-03-23T09:08:47;21.90;;;12.10;;
10705;SDS011;5404;42.656;23.336;2024-03-23T09:11:12;24.27;;;12.77;;
10705;SDS011;5404;42.656;23.336;2024-03-23T09:13:39;25.50;;;12.63;;
10705;SDS011;5404;42.656;23.336;2024-03-23T09:16:05;20.00;;;12.32;;
10705;SDS011;5404;42.656;23.336;2024-03-23T09:18:34;23.95;;;12.10;;
10705;SDS011;5404;42.656;23.336;2024-03-23T09:21:01;23.05;;;12.18;;
10705;SDS011;5404;42.656;23.336;2024-03-23T09:23:26;20.02;;;11.25;;
10705;SDS011;5404;42.656;23.336;2024-03-23T09:25:52;22.52;;;12.02;;
10705;SDS011;5404;42.656;23.336;2024-03-23T09:28:17;20.73;;;12.23;;
10705;SDS011;5404;42.656;23.336;2024-03-23T09:30:43;22.08;;;12.32;;
10705;SDS011;5404;42.656;23.336;2024-03-23T09:33:09;22.35;;;12.02;;
10705;SDS011;5404;42.656;23.336;2024-03-23T09:35:42;24.33;;;12.52;;
10705;SDS011;5404;42.656;23.336;2024-03-23T09:38:08;26.65;;;11.38;;
10705;SDS011;5404;42.656;23.336;2024-03-23T09:40:34;20.90;;;10.85;;
10705;SDS011;5404;42.656;23.336;2024-03-23T09:43:00;20.95;;;10.50;;
10705;SDS011;5404;42.656;23.336;2024-03-23T09:45:29;19.85;;;9.98;;
10705;SDS011;5404;42.656;23.336;2024-03-23T09:50:20;23.30;;;10.25;;
10705;SDS011;5404;42.656;23.336;2024-03-23T09:52:46;22.63;;;11.45;;
10705;SDS011;5404;42.656;23.336;2024-03-23T09:55:12;29.23;;;10.18;;
10705;SDS011;5404;42.656;23.336;2024-03-23T09:57:38;15.75;;;9.80;;
10705;SDS011;5404;42.656;23.336;2024-03-23T10:00:04;17.48;;;9.52;;
10705;SDS011;5404;42.656;23.336;2024-03-23T10:02:31;20.10;;;10.25;;
10705;SDS011;5404;42.656;23.336;2024-03-23T10:04:56;30.95;;;10.27;;
10705;SDS011;5404;42.656;23.336;2024-03-23T10:07:22;19.60;;;10.50;;
10705;SDS011;5404;42.656;23.336;2024-03-23T10:09:48;21.85;;;10.95;;
10705;SDS011;5404;42.656;23.336;2024-03-23T10:12:16;23.27;;;10.50;;
10705;SDS011;5404;42.656;23.336;2024-03-23T10:14:43;17.52;;;10.13;;
10705;SDS011;5404;42.656;23.336;2024-03-23T10:17:15;16.40;;;11.23;;
10705;SDS011;5404;42.656;23.336;2024-03-23T10:19:48;23.65;;;11.00;;
10705;SDS011;5404;42.656;23.336;2024-03-23T10:22:18;27.33;;;10.75;;
10705;SDS011;5404;42.656;23.336;2024-03-23T10:24:47;18.13;;;10.27;;
10705;SDS011;5404;42.656;23.336;2024-03-23T10:27:17;18.55;;;10.38;;
10705;SDS011;5404;42.656;23.336;2024-03-23T10:29:44;25.65;;;10.95;;
10705;SDS011;5404;42.656;23.336;2024-03-23T10:32:14;17.88;;;10.52;;
10705;SDS011;5404;42.656;23.336;2024-03-23T10:34:40;20.27;;;10.85;;
10705;SDS011;5404;42.656;23.336;2024-03-23T10:37:06;23.35;;;11.25;;
10705;SDS011;5404;42.656;23.336;2024-03-23T10:39:32;21.10;;;10.50;;
10705;SDS011;5404;42.656;23.336;2024-03-23T10:42:01;25.00;;;11.23;;
10705;SDS011;5404;42.656;23.336;2024-03-23T10:44:31;22.80;;;11.48;;
10705;SDS011;5404;42.656;23.336;2024-03-23T10:46:57;21.77;;;10.23;;
10705;SDS011;5404;42.656;23.336;2024-03-23T10:52:00;18.27;;;9.43;;
10705;SDS011;5404;42.656;23.336;2024-03-23T10:54:27;16.63;;;9.43;;
10705;SDS011;5404;42.656;23.336;2024-03-23T10:59:59;21.50;;;8.88;;
10705;SDS011;5404;42.656;23.336;2024-03-23T11:02:26;18.42;;;8.25;;
10705;SDS011;5404;42.656;23.336;2024-03-23T11:04:53;15.40;;;9.05;;
10705;SDS011;5404;42.656;23.336;2024-03-23T11:07:28;29.20;;;9.10;;
10705;SDS011;5404;42.656;23.336;2024-03-23T11:09:56;21.70;;;10.35;;
10705;SDS011;5404;42.656;23.336;2024-03-23T11:14:51;17.47;;;7.67;;
10705;SDS011;5404;42.656;23.336;2024-03-23T11:17:18;18.48;;;8.80;;
10705;SDS011;5404;42.656;23.336;2024-03-23T11:19:43;13.85;;;8.57;;
10705;SDS011;5404;42.656;23.336;2024-03-23T11:22:09;18.88;;;8.07;;
10705;SDS011;5404;42.656;23.336;2024-03-23T11:24:35;20.60;;;8.50;;
10705;SDS011;5404;42.656;23.336;2024-03-23T11:27:00;12.35;;;7.80;;
10705;SDS011;5404;42.656;23.336;2024-03-23T11:29:29;12.25;;;8.13;;
10705;SDS011;5404;42.656;23.336;2024-03-23T11:31:55;17.08;;;8.50;;
10705;SDS011;5404;42.656;23.336;2024-03-23T11:34:21;20.55;;;7.50;;
10705;SDS011;5404;42.656;23.336;2024-03-23T11:36:47;15.43;;;8.48;;
10705;SDS011;5404;42.656;23.336;2024-03-23T11:41:50;14.90;;;7.78;;
10705;SDS011;5404;42.656;23.336;2024-03-23T11:44:22;18.42;;;7.60;;
10705;SDS011;5404;42.656;23.336;2024-03-23T11:46:48;11.18;;;7.40;;
10705;SDS011;5404;42.656;23.336;2024-03-23T11:49:23;15.95;;;7.70;;
10705;SDS011;5404;42.656;23.336;2024-03-23T11:51:53;36.50;;;9.80;;
10705;SDS011;5404;42.656;23.336;2024-03-23T11:54:23;14.10;;;8.85;;
10705;SDS011;5404;42.656;23.336;2024-03-23T11:56:59;16.40;;;9.05;;
10705;SDS011;5404;42.656;23.336;2024-03-23T11:59:33;15.95;;;8.65;;
10705;SDS011;5404;42.656;23.336;2024-03-23T12:02:06;15.98;;;9.00;;
10705;SDS011;5404;42.656;23.336;2024-03-23T12:04:32;19.55;;;8.98;;
10705;SDS011;5404;42.656;23.336;2024-03-23T12:07:11;17.13;;;9.25;;
10705;SDS011;5404;42.656;23.336;2024-03-23T12:09:37;15.67;;;7.90;;
10705;SDS011;5404;42.656;23.336;2024-03-23T12:12:10;17.10;;;8.02;;
10705;SDS011;5404;42.656;23.336;2024-03-23T12:14:39;15.25;;;8.70;;
10705;SDS011;5404;42.656;23.336;2024-03-23T12:17:11;21.55;;;8.40;;
10705;SDS011;5404;42.656;23.336;2024-03-23T12:19:38;12.80;;;8.25;;
10705;SDS011;5404;42.656;23.336;2024-03-23T12:22:05;15.68;;;7.47;;
10705;SDS011;5404;42.656;23.336;2024-03-23T12:24:32;14.27;;;7.60;;
10705;SDS011;5404;42.656;23.336;2024-03-23T12:27:03;15.50;;;7.80;;
10705;SDS011;5404;42.656;23.336;2024-03-23T12:29:30;11.73;;;6.80;;
10705;SDS011;5404;42.656;23.336;2024-03-23T12:31:58;14.98;;;6.90;;
10705;SDS011;5404;42.656;23.336;2024-03-23T12:34:25;19.45;;;6.97;;
10705;SDS011;5404;42.656;23.336;2024-03-23T12:36:51;14.82;;;7.03;;
10705;SDS011;5404;42.656;23.336;2024-03-23T12:39:16;10.55;;;5.95;;
10705;SDS011;5404;42.656;23.336;2024-03-23T12:41:41;15.43;;;6.55;;
10705;SDS011;5404;42.656;23.336;2024-03-23T12:44:07;12.40;;;6.05;;
10705;SDS011;5404;42.656;23.336;2024-03-23T12:46:36;14.75;;;6.13;;
10705;SDS011;5404;42.656;23.336;2024-03-23T12:49:02;13.15;;;6.15;;
10705;SDS011;5404;42.656;23.336;2024-03-23T12:51:27;14.68;;;5.18;;
10705;SDS011;5404;42.656;23.336;2024-03-23T12:53:53;11.40;;;4.78;;
10705;SDS011;5404;42.656;23.336;2024-03-23T12:56:18;8.15;;;5.05;;
10705;SDS011;5404;42.656;23.336;2024-03-23T12:58:44;18.45;;;4.85;;
10705;SDS011;5404;42.656;23.336;2024-03-23T13:01:09;7.72;;;5.18;;
10705;SDS011;5404;42.656;23.336;2024-03-23T13:03:34;8.32;;;4.90;;
10705;SDS011;5404;42.656;23.336;2024-03-23T13:06:00;6.75;;;4.55;;
10705;SDS011;5404;42.656;23.336;2024-03-23T13:08:25;6.75;;;4.65;;
10705;SDS011;5404;42.656;23.336;2024-03-23T13:10:54;7.28;;;3.95;;
10705;SDS011;5404;42.656;23.336;2024-03-23T13:13:20;7.28;;;4.63;;
10705;SDS011;5404;42.656;23.336;2024-03-23T13:15:52;9.27;;;4.50;;
10705;SDS011;5404;42.656;23.336;2024-03-23T13:18:17;8.45;;;4.00;;
10705;SDS011;5404;42.656;23.336;2024-03-23T13:20:43;8.15;;;3.63;;
10705;SDS011;5404;42.656;23.336;2024-03-23T13:23:09;9.35;;;4.55;;
10705;SDS011;5404;42.656;23.336;2024-03-23T13:25:34;10.10;;;3.97;;
10705;SDS011;5404;42.656;23.336;2024-03-23T13:28:00;5.40;;;3.47;;
10705;SDS011;5404;42.656;23.336;2024-03-23T13:30:26;5.35;;;2.72;;
10705;SDS011;5404;42.656;23.336;2024-03-23T13:32:51;3.97;;;1.73;;
10705;SDS011;5404;42.656;23.336;2024-03-23T13:35:17;4.22;;;1.90;;
10705;SDS011;5404;42.656;23.336;2024-03-23T13:37:43;6.30;;;1.65;;
10705;SDS011;5404;42.656;23.336;2024-03-23T13:40:08;9.18;;;2.00;;
10705;SDS011;5404;42.656;23.336;2024-03-23T13:42:34;10.05;;;3.42;;
10705;SDS011;5404;42.656;23.336;2024-03-23T13:44:59;3.40;;;2.20;;
10705;SDS011;5404;42.656;23.336;2024-03-23T13:47:25;3.63;;;1.88;;
10705;SDS011;5404;42.656;23.336;2024-03-23T13:49:50;6.00;;;1.95;;
10705;SDS011;5404;42.656;23.336;2024-03-23T13:52:16;2.78;;;1.60;;
10705;SDS011;5404;42.656;23.336;2024-03-23T13:54:43;2.88;;;1.40;;
10705;SDS011;5404;42.656;23.336;2024-03-23T13:57:11;7.70;;;2.88;;
10705;SDS011;5404;42.656;23.336;2024-03-23T13:59:36;7.40;;;2.17;;
10705;SDS011;5404;42.656;23.336;2024-03-23T14:02:02;5.82;;;1.80;;
10705;SDS011;5404;42.656;23.336;2024-03-23T14:04:27;4.47;;;2.00;;
10705;SDS011;5404;42.656;23.336;2024-03-23T14:06:53;3.78;;;1.80;;
10705;SDS011;5404;42.656;23.336;2024-03-23T14:09:19;2.80;;;1.92;;
10705;SDS011;5404;42.656;23.336;2024-03-23T14:11:47;7.30;;;1.98;;
10705;SDS011;5404;42.656;23.336;2024-03-23T14:14:13;4.88;;;2.10;;
10705;SDS011;5404;42.656;23.336;2024-03-23T14:16:41;4.68;;;2.40;;
10705;SDS011;5404;42.656;23.336;2024-03-23T14:19:10;4.10;;;2.08;;
10705;SDS011;5404;42.656;23.336;2024-03-23T14:21:35;3.47;;;2.22;;
10705;SDS011;5404;42.656;23.336;2024-03-23T14:24:01;2.67;;;1.70;;
10705;SDS011;5404;42.656;23.336;2024-03-23T14:26:27;5.05;;;1.67;;
10705;SDS011;5404;42.656;23.336;2024-03-23T14:28:53;3.55;;;1.73;;
10705;SDS011;5404;42.656;23.336;2024-03-23T14:31:18;9.45;;;1.98;;
10705;SDS011;5404;42.656;23.336;2024-03-23T14:33:44;1.75;;;1.50;;
10705;SDS011;5404;42.656;23.336;2024-03-23T14:36:13;2.17;;;1.48;;
10705;SDS011;5404;42.656;23.336;2024-03-23T14:38:39;2.35;;;1.55;;
10705;SDS011;5404;42.656;23.336;2024-03-23T14:41:05;2.50;;;1.90;;
10705;SDS011;5404;42.656;23.336;2024-03-23T14:43:31;4.20;;;1.65;;
10705;SDS011;5404;42.656;23.336;2024-03-23T14:48:39;2.13;;;1.50;;
10705;SDS011;5404;42.656;23.336;2024-03-23T14:51:06;1.70;;;1.38;;
10705;SDS011;5404;42.656;23.336;2024-03-23T14:53:33;4.38;;;1.85;;
10705;SDS011;5404;42.656;23.336;2024-03-23T14:56:04;2.22;;;1.70;;
10705;SDS011;5404;42.656;23.336;2024-03-23T14:58:30;3.65;;;1.73;;
10705;SDS011;5404;42.656;23.336;2024-03-23T15:01:05;6.70;;;2.30;;
10705;SDS011;5404;42.656;23.336;2024-03-23T15:03:37;3.58;;;1.73;;
10705;SDS011;5404;42.656;23.336;2024-03-23T15:06:09;10.63;;;2.40;;
10705;SDS011;5404;42.656;23.336;2024-03-23T15:08:35;5.53;;;2.00;;
10705;SDS011;5404;42.656;23.336;2024-03-23T15:11:05;4.20;;;2.10;;
10705;SDS011;5404;42.656;23.336;2024-03-23T15:13:37;1.55;;;1.42;;
10705;SDS011;5404;42.656;23.336;2024-03-23T15:16:03;2.95;;;1.83;;
10705;SDS011;5404;42.656;23.336;2024-03-23T15:18:30;2.85;;;1.70;;
10705;SDS011;5404;42.656;23.336;2024-03-23T15:21:01;10.20;;;2.40;;
10705;SDS011;5404;42.656;23.336;2024-03-23T15:23:37;7.28;;;2.17;;
10705;SDS011;5404;42.656;23.336;2024-03-23T15:26:03;2.92;;;2.00;;
10705;SDS011;5404;42.656;23.336;2024-03-23T15:28:31;4.40;;;2.58;;
10705;SDS011;5404;42.656;23.336;2024-03-23T15:31:25;5.90;;;2.33;;
10705;SDS011;5404;42.656;23.336;2024-03-23T15:33:51;8.13;;;2.28;;
10705;SDS011;5404;42.656;23.336;2024-03-23T15:36:17;3.40;;;1.70;;
10705;SDS011;5404;42.656;23.336;2024-03-23T15:38:43;8.13;;;2.50;;